Portada
METAR-TAF:

METAR-TAF

Aeropuertos :

Aeropuerto Internacional de Sarajevo

Sarajevo, Bosnia y Herzegovina

latitud: 43-49N, longitud: 018-20E, altitud: 511 m

Observación

El informe se hizo hace 20 minutos, a las 11:30 UTC
Viento 9 kt del norte-noreste, variando entre norte y este
Temperatura 13°C
Humedad 28%
Presión 1017 hPa
Visibilidad 10 km o más
Escasas nubes a una altura de 5000 ft
Nubes dispersas a una altura de 7300 ft

METAR: LQSA 041130Z 03009KT 010V100 9999 FEW050 SCT073 13/M05 Q1017

Hora: 13:50 (11:50 UTC)

Pronóstico

El informe se hizo hace 50 minutos, a las 11:00 UTC
Pronóstico válido del 04 a las 12 UTC al 05 a las 12 UTC
Viento 6 kt del este
Visibilidad 10 km o más
Escasas nubes a una altura de 5000 ft
Probabilidad 40% :
Temporalmente
del 04 a las 12 UTC al 04 a las 17 UTC
Viento 12 kt del norte-noreste

TAF: LQSA 041100Z 0412/0512 08006KT 9999 FEW050 TX17/0414Z TN00/0504Z PROB40 TEMPO 0412/0417 02012KT

Observaciones y pronósticos meteorológicos de más de 4000 aeropuertos (mensajes METAR y TAF).

Los puntos amarillos y rojos representan las estaciones disponibles.

Ponga el ratón en el punto deseado para ver el nombre de la estación.

Haga clic para ver las observaciones y los pronósticos meteorológicos.

Para cambiar el mapa : haga clic en los botones verdes con una cruz de color negro para hacer un zoom, en el botón verde con un guión para alejar o en las flechas verdes para mapas adyacentes.


METAR-TAF: